sensor_id;sensor_type;location;lat;lon;timestamp;P1;durP1;ratioP1;P2;durP2;ratioP2
38785;SDS011;24535;45.508;12.252;2023-03-05T00:00:39;94.03;;;66.85;;
38785;SDS011;24535;45.508;12.252;2023-03-05T00:03:05;92.10;;;65.80;;
38785;SDS011;24535;45.508;12.252;2023-03-05T00:05:30;87.40;;;64.80;;
38785;SDS011;24535;45.508;12.252;2023-03-05T00:07:58;90.85;;;65.15;;
38785;SDS011;24535;45.508;12.252;2023-03-05T00:10:23;90.85;;;63.78;;
38785;SDS011;24535;45.508;12.252;2023-03-05T00:12:49;84.47;;;63.83;;
38785;SDS011;24535;45.508;12.252;2023-03-05T00:15:14;89.75;;;66.00;;
38785;SDS011;24535;45.508;12.252;2023-03-05T00:17:39;92.22;;;66.50;;
38785;SDS011;24535;45.508;12.252;2023-03-05T00:20:05;91.47;;;65.05;;
38785;SDS011;24535;45.508;12.252;2023-03-05T00:22:32;88.25;;;62.95;;
38785;SDS011;24535;45.508;12.252;2023-03-05T00:24:59;89.30;;;63.42;;
38785;SDS011;24535;45.508;12.252;2023-03-05T00:27:24;90.90;;;65.03;;
38785;SDS011;24535;45.508;12.252;2023-03-05T00:29:49;91.13;;;63.00;;
38785;SDS011;24535;45.508;12.252;2023-03-05T00:32:15;82.93;;;63.05;;
38785;SDS011;24535;45.508;12.252;2023-03-05T00:34:40;94.03;;;65.30;;
38785;SDS011;24535;45.508;12.252;2023-03-05T00:37:06;88.65;;;60.78;;
38785;SDS011;24535;45.508;12.252;2023-03-05T00:39:31;86.93;;;61.65;;
38785;SDS011;24535;45.508;12.252;2023-03-05T00:41:57;86.25;;;61.33;;
38785;SDS011;24535;45.508;12.252;2023-03-05T00:44:22;93.18;;;64.82;;
38785;SDS011;24535;45.508;12.252;2023-03-05T00:46:49;89.03;;;64.45;;
38785;SDS011;24535;45.508;12.252;2023-03-05T00:49:15;86.68;;;63.05;;
38785;SDS011;24535;45.508;12.252;2023-03-05T00:51:41;82.82;;;63.00;;
38785;SDS011;24535;45.508;12.252;2023-03-05T00:54:06;87.20;;;62.83;;
38785;SDS011;24535;45.508;12.252;2023-03-05T00:56:32;93.75;;;64.78;;
38785;SDS011;24535;45.508;12.252;2023-03-05T00:58:58;89.78;;;64.20;;
38785;SDS011;24535;45.508;12.252;2023-03-05T01:01:23;88.18;;;64.88;;
38785;SDS011;24535;45.508;12.252;2023-03-05T01:03:49;85.80;;;63.45;;
38785;SDS011;24535;45.508;12.252;2023-03-05T01:06:15;87.78;;;63.60;;
38785;SDS011;24535;45.508;12.252;2023-03-05T01:08:42;96.05;;;65.40;;
38785;SDS011;24535;45.508;12.252;2023-03-05T01:11:10;88.15;;;63.83;;
38785;SDS011;24535;45.508;12.252;2023-03-05T01:13:36;88.30;;;64.93;;
38785;SDS011;24535;45.508;12.252;2023-03-05T01:16:02;87.90;;;64.65;;
38785;SDS011;24535;45.508;12.252;2023-03-05T01:18:28;87.63;;;64.35;;
38785;SDS011;24535;45.508;12.252;2023-03-05T01:20:53;89.60;;;63.40;;
38785;SDS011;24535;45.508;12.252;2023-03-05T01:23:19;93.28;;;66.35;;
38785;SDS011;24535;45.508;12.252;2023-03-05T01:25:45;90.75;;;63.63;;
38785;SDS011;24535;45.508;12.252;2023-03-05T01:28:10;85.38;;;62.58;;
38785;SDS011;24535;45.508;12.252;2023-03-05T01:30:36;94.53;;;64.80;;
38785;SDS011;24535;45.508;12.252;2023-03-05T01:33:01;98.90;;;69.03;;
38785;SDS011;24535;45.508;12.252;2023-03-05T01:35:27;93.53;;;67.15;;
38785;SDS011;24535;45.508;12.252;2023-03-05T01:37:53;93.13;;;65.32;;
38785;SDS011;24535;45.508;12.252;2023-03-05T01:40:20;92.22;;;66.07;;
38785;SDS011;24535;45.508;12.252;2023-03-05T01:42:54;95.95;;;67.35;;
38785;SDS011;24535;45.508;12.252;2023-03-05T01:45:22;89.47;;;62.95;;
38785;SDS011;24535;45.508;12.252;2023-03-05T01:47:48;97.03;;;66.78;;
38785;SDS011;24535;45.508;12.252;2023-03-05T01:50:17;94.65;;;68.78;;
38785;SDS011;24535;45.508;12.252;2023-03-05T01:52:51;99.78;;;71.20;;
38785;SDS011;24535;45.508;12.252;2023-03-05T01:55:23;94.45;;;67.53;;
38785;SDS011;24535;45.508;12.252;2023-03-05T01:58:03;98.25;;;68.55;;
38785;SDS011;24535;45.508;12.252;2023-03-05T02:00:39;105.05;;;70.65;;
38785;SDS011;24535;45.508;12.252;2023-03-05T02:03:09;103.57;;;74.05;;
38785;SDS011;24535;45.508;12.252;2023-03-05T02:05:37;100.70;;;71.50;;
38785;SDS011;24535;45.508;12.252;2023-03-05T02:08:07;101.57;;;73.72;;
38785;SDS011;24535;45.508;12.252;2023-03-05T02:10:39;95.57;;;70.03;;
38785;SDS011;24535;45.508;12.252;2023-03-05T02:13:09;100.72;;;71.40;;
38785;SDS011;24535;45.508;12.252;2023-03-05T02:15:37;95.40;;;68.57;;
38785;SDS011;24535;45.508;12.252;2023-03-05T02:18:03;98.85;;;70.22;;
38785;SDS011;24535;45.508;12.252;2023-03-05T02:20:30;105.38;;;71.57;;
38785;SDS011;24535;45.508;12.252;2023-03-05T02:23:18;98.33;;;69.20;;
38785;SDS011;24535;45.508;12.252;2023-03-05T02:25:46;98.18;;;72.68;;
38785;SDS011;24535;45.508;12.252;2023-03-05T02:28:22;95.13;;;69.25;;
38785;SDS011;24535;45.508;12.252;2023-03-05T02:33:18;92.65;;;63.10;;
38785;SDS011;24535;45.508;12.252;2023-03-05T02:35:44;99.35;;;68.95;;
38785;SDS011;24535;45.508;12.252;2023-03-05T02:38:13;98.97;;;69.75;;
38785;SDS011;24535;45.508;12.252;2023-03-05T02:40:41;96.35;;;69.68;;
38785;SDS011;24535;45.508;12.252;2023-03-05T02:43:07;97.57;;;69.13;;
38785;SDS011;24535;45.508;12.252;2023-03-05T02:45:33;95.60;;;70.95;;
38785;SDS011;24535;45.508;12.252;2023-03-05T02:47:58;95.53;;;70.85;;
38785;SDS011;24535;45.508;12.252;2023-03-05T02:50:25;88.30;;;66.20;;
38785;SDS011;24535;45.508;12.252;2023-03-05T02:52:52;99.70;;;70.63;;
38785;SDS011;24535;45.508;12.252;2023-03-05T02:55:17;93.20;;;68.38;;
38785;SDS011;24535;45.508;12.252;2023-03-05T02:57:43;94.20;;;68.20;;
38785;SDS011;24535;45.508;12.252;2023-03-05T03:00:08;89.05;;;66.38;;
38785;SDS011;24535;45.508;12.252;2023-03-05T03:02:34;93.65;;;66.15;;
38785;SDS011;24535;45.508;12.252;2023-03-05T03:05:00;98.50;;;69.18;;
38785;SDS011;24535;45.508;12.252;2023-03-05T03:07:25;94.90;;;69.97;;
38785;SDS011;24535;45.508;12.252;2023-03-05T03:09:51;92.07;;;67.75;;
38785;SDS011;24535;45.508;12.252;2023-03-05T03:12:16;95.32;;;70.57;;
38785;SDS011;24535;45.508;12.252;2023-03-05T03:14:42;99.95;;;70.88;;
38785;SDS011;24535;45.508;12.252;2023-03-05T03:17:08;96.40;;;69.40;;
38785;SDS011;24535;45.508;12.252;2023-03-05T03:19:36;99.80;;;69.32;;
38785;SDS011;24535;45.508;12.252;2023-03-05T03:22:02;103.72;;;74.22;;
38785;SDS011;24535;45.508;12.252;2023-03-05T03:24:29;97.88;;;69.65;;
38785;SDS011;24535;45.508;12.252;2023-03-05T03:26:56;99.32;;;69.78;;
38785;SDS011;24535;45.508;12.252;2023-03-05T03:29:21;99.93;;;73.55;;
38785;SDS011;24535;45.508;12.252;2023-03-05T03:31:47;100.18;;;72.22;;
38785;SDS011;24535;45.508;12.252;2023-03-05T03:34:13;95.85;;;68.20;;
38785;SDS011;24535;45.508;12.252;2023-03-05T03:36:40;97.40;;;69.65;;
38785;SDS011;24535;45.508;12.252;2023-03-05T03:39:06;96.82;;;70.25;;
38785;SDS011;24535;45.508;12.252;2023-03-05T03:41:34;102.05;;;70.10;;
38785;SDS011;24535;45.508;12.252;2023-03-05T03:44:00;99.57;;;70.28;;
38785;SDS011;24535;45.508;12.252;2023-03-05T03:46:30;106.93;;;69.75;;
38785;SDS011;24535;45.508;12.252;2023-03-05T03:48:55;98.40;;;70.13;;
38785;SDS011;24535;45.508;12.252;2023-03-05T03:51:21;95.50;;;69.25;;
38785;SDS011;24535;45.508;12.252;2023-03-05T03:53:46;99.03;;;71.47;;
38785;SDS011;24535;45.508;12.252;2023-03-05T03:56:11;95.03;;;68.45;;
38785;SDS011;24535;45.508;12.252;2023-03-05T03:58:37;94.38;;;67.35;;
38785;SDS011;24535;45.508;12.252;2023-03-05T04:01:02;84.05;;;61.72;;
38785;SDS011;24535;45.508;12.252;2023-03-05T04:03:28;94.93;;;67.00;;
38785;SDS011;24535;45.508;12.252;2023-03-05T04:05:53;95.05;;;69.38;;
38785;SDS011;24535;45.508;12.252;2023-03-05T04:08:21;89.60;;;65.00;;
38785;SDS011;24535;45.508;12.252;2023-03-05T04:10:47;89.55;;;64.90;;
38785;SDS011;24535;45.508;12.252;2023-03-05T04:13:12;87.32;;;65.93;;
38785;SDS011;24535;45.508;12.252;2023-03-05T04:15:38;87.38;;;64.05;;
38785;SDS011;24535;45.508;12.252;2023-03-05T04:18:04;87.10;;;63.33;;
38785;SDS011;24535;45.508;12.252;2023-03-05T04:20:29;101.20;;;63.47;;
38785;SDS011;24535;45.508;12.252;2023-03-05T04:22:55;82.85;;;59.50;;
38785;SDS011;24535;45.508;12.252;2023-03-05T04:25:20;85.10;;;61.83;;
38785;SDS011;24535;45.508;12.252;2023-03-05T04:27:46;87.03;;;60.28;;
38785;SDS011;24535;45.508;12.252;2023-03-05T04:30:11;87.03;;;62.60;;
38785;SDS011;24535;45.508;12.252;2023-03-05T04:32:38;82.68;;;60.03;;
38785;SDS011;24535;45.508;12.252;2023-03-05T04:35:04;88.15;;;62.67;;
38785;SDS011;24535;45.508;12.252;2023-03-05T04:37:30;84.50;;;60.75;;
38785;SDS011;24535;45.508;12.252;2023-03-05T04:39:55;90.43;;;63.47;;
38785;SDS011;24535;45.508;12.252;2023-03-05T04:42:21;90.20;;;63.80;;
38785;SDS011;24535;45.508;12.252;2023-03-05T04:44:49;87.22;;;60.90;;
38785;SDS011;24535;45.508;12.252;2023-03-05T04:47:15;89.80;;;63.30;;
38785;SDS011;24535;45.508;12.252;2023-03-05T04:49:42;86.70;;;62.85;;
38785;SDS011;24535;45.508;12.252;2023-03-05T04:52:09;82.50;;;63.50;;
38785;SDS011;24535;45.508;12.252;2023-03-05T04:54:37;80.47;;;60.55;;
38785;SDS011;24535;45.508;12.252;2023-03-05T04:57:03;83.80;;;61.72;;
38785;SDS011;24535;45.508;12.252;2023-03-05T04:59:29;83.30;;;61.35;;
38785;SDS011;24535;45.508;12.252;2023-03-05T05:01:55;85.90;;;61.55;;
38785;SDS011;24535;45.508;12.252;2023-03-05T05:04:21;83.10;;;58.63;;
38785;SDS011;24535;45.508;12.252;2023-03-05T05:06:47;79.65;;;60.10;;
38785;SDS011;24535;45.508;12.252;2023-03-05T05:09:12;83.88;;;61.35;;
38785;SDS011;24535;45.508;12.252;2023-03-05T05:11:38;79.45;;;58.25;;
38785;SDS011;24535;45.508;12.252;2023-03-05T05:14:04;85.97;;;58.60;;
38785;SDS011;24535;45.508;12.252;2023-03-05T05:16:29;84.82;;;58.40;;
38785;SDS011;24535;45.508;12.252;2023-03-05T05:18:56;78.90;;;57.78;;
38785;SDS011;24535;45.508;12.252;2023-03-05T05:21:21;81.63;;;57.28;;
38785;SDS011;24535;45.508;12.252;2023-03-05T05:23:47;78.75;;;57.03;;
38785;SDS011;24535;45.508;12.252;2023-03-05T05:26:13;79.57;;;55.38;;
38785;SDS011;24535;45.508;12.252;2023-03-05T05:28:39;75.38;;;55.28;;
38785;SDS011;24535;45.508;12.252;2023-03-05T05:33:34;78.00;;;55.65;;
38785;SDS011;24535;45.508;12.252;2023-03-05T05:36:01;82.78;;;56.22;;
38785;SDS011;24535;45.508;12.252;2023-03-05T05:38:31;71.53;;;54.45;;
38785;SDS011;24535;45.508;12.252;2023-03-05T05:43:28;76.05;;;55.47;;
38785;SDS011;24535;45.508;12.252;2023-03-05T05:45:57;75.22;;;51.80;;
38785;SDS011;24535;45.508;12.252;2023-03-05T05:48:23;71.55;;;51.83;;
38785;SDS011;24535;45.508;12.252;2023-03-05T05:50:49;68.82;;;49.03;;
38785;SDS011;24535;45.508;12.252;2023-03-05T05:53:14;64.13;;;49.85;;
38785;SDS011;24535;45.508;12.252;2023-03-05T05:55:40;67.80;;;51.83;;
38785;SDS011;24535;45.508;12.252;2023-03-05T05:58:05;73.10;;;53.60;;
38785;SDS011;24535;45.508;12.252;2023-03-05T06:00:31;74.93;;;54.08;;
38785;SDS011;24535;45.508;12.252;2023-03-05T06:02:56;73.03;;;54.08;;
38785;SDS011;24535;45.508;12.252;2023-03-05T06:05:22;69.85;;;53.15;;
38785;SDS011;24535;45.508;12.252;2023-03-05T06:07:48;72.30;;;51.90;;
38785;SDS011;24535;45.508;12.252;2023-03-05T06:10:13;71.03;;;49.42;;
38785;SDS011;24535;45.508;12.252;2023-03-05T06:12:39;67.18;;;49.45;;
38785;SDS011;24535;45.508;12.252;2023-03-05T06:15:04;68.85;;;50.78;;
38785;SDS011;24535;45.508;12.252;2023-03-05T06:17:30;64.03;;;48.80;;
38785;SDS011;24535;45.508;12.252;2023-03-05T06:19:56;63.38;;;45.28;;
38785;SDS011;24535;45.508;12.252;2023-03-05T06:22:22;62.33;;;45.95;;
38785;SDS011;24535;45.508;12.252;2023-03-05T06:24:47;62.05;;;47.65;;
38785;SDS011;24535;45.508;12.252;2023-03-05T06:27:13;61.47;;;46.78;;
38785;SDS011;24535;45.508;12.252;2023-03-05T06:29:38;59.50;;;44.05;;
38785;SDS011;24535;45.508;12.252;2023-03-05T06:32:04;61.58;;;45.05;;
38785;SDS011;24535;45.508;12.252;2023-03-05T06:34:29;58.47;;;42.75;;
38785;SDS011;24535;45.508;12.252;2023-03-05T06:36:55;55.95;;;42.00;;
38785;SDS011;24535;45.508;12.252;2023-03-05T06:39:20;53.97;;;41.45;;
38785;SDS011;24535;45.508;12.252;2023-03-05T06:41:48;53.65;;;40.10;;
38785;SDS011;24535;45.508;12.252;2023-03-05T06:44:15;53.83;;;38.90;;
38785;SDS011;24535;45.508;12.252;2023-03-05T06:46:41;52.83;;;38.35;;
38785;SDS011;24535;45.508;12.252;2023-03-05T06:49:07;48.75;;;35.67;;
38785;SDS011;24535;45.508;12.252;2023-03-05T06:51:34;54.45;;;37.55;;
38785;SDS011;24535;45.508;12.252;2023-03-05T06:54:02;50.97;;;38.03;;
38785;SDS011;24535;45.508;12.252;2023-03-05T06:56:29;50.35;;;36.53;;
38785;SDS011;24535;45.508;12.252;2023-03-05T06:58:55;54.08;;;36.17;;
38785;SDS011;24535;45.508;12.252;2023-03-05T07:01:21;44.55;;;32.42;;
38785;SDS011;24535;45.508;12.252;2023-03-05T07:03:50;46.40;;;34.65;;
38785;SDS011;24535;45.508;12.252;2023-03-05T07:06:18;51.97;;;34.22;;
38785;SDS011;24535;45.508;12.252;2023-03-05T07:08:45;47.65;;;33.58;;
38785;SDS011;24535;45.508;12.252;2023-03-05T07:11:12;49.20;;;33.50;;
38785;SDS011;24535;45.508;12.252;2023-03-05T07:13:39;43.45;;;33.50;;
38785;SDS011;24535;45.508;12.252;2023-03-05T07:16:06;44.25;;;32.15;;
38785;SDS011;24535;45.508;12.252;2023-03-05T07:18:32;43.58;;;31.02;;
38785;SDS011;24535;45.508;12.252;2023-03-05T07:21:02;41.97;;;29.73;;
38785;SDS011;24535;45.508;12.252;2023-03-05T07:23:31;44.90;;;31.10;;
38785;SDS011;24535;45.508;12.252;2023-03-05T07:26:01;37.95;;;29.90;;
38785;SDS011;24535;45.508;12.252;2023-03-05T07:28:27;39.42;;;28.88;;
38785;SDS011;24535;45.508;12.252;2023-03-05T07:30:57;37.00;;;27.15;;
38785;SDS011;24535;45.508;12.252;2023-03-05T07:33:24;39.25;;;29.25;;
38785;SDS011;24535;45.508;12.252;2023-03-05T07:35:50;40.53;;;29.73;;
38785;SDS011;24535;45.508;12.252;2023-03-05T07:38:15;36.30;;;26.58;;
38785;SDS011;24535;45.508;12.252;2023-03-05T07:40:41;29.35;;;24.00;;
38785;SDS011;24535;45.508;12.252;2023-03-05T07:43:06;34.83;;;24.73;;
38785;SDS011;24535;45.508;12.252;2023-03-05T07:45:32;33.10;;;23.25;;
38785;SDS011;24535;45.508;12.252;2023-03-05T07:47:58;37.10;;;21.88;;
38785;SDS011;24535;45.508;12.252;2023-03-05T07:50:23;27.95;;;21.77;;
38785;SDS011;24535;45.508;12.252;2023-03-05T07:52:49;29.10;;;21.60;;
38785;SDS011;24535;45.508;12.252;2023-03-05T07:55:14;27.38;;;20.33;;
38785;SDS011;24535;45.508;12.252;2023-03-05T07:57:39;26.27;;;18.88;;
38785;SDS011;24535;45.508;12.252;2023-03-05T08:00:05;25.65;;;18.63;;
38785;SDS011;24535;45.508;12.252;2023-03-05T08:02:31;23.58;;;17.05;;
38785;SDS011;24535;45.508;12.252;2023-03-05T08:04:57;22.23;;;16.38;;
38785;SDS011;24535;45.508;12.252;2023-03-05T08:07:22;22.48;;;14.70;;
38785;SDS011;24535;45.508;12.252;2023-03-05T08:09:48;29.55;;;15.60;;
38785;SDS011;24535;45.508;12.252;2023-03-05T08:12:13;16.88;;;12.93;;
38785;SDS011;24535;45.508;12.252;2023-03-05T08:14:39;23.10;;;13.45;;
38785;SDS011;24535;45.508;12.252;2023-03-05T08:17:05;17.08;;;12.45;;
38785;SDS011;24535;45.508;12.252;2023-03-05T08:19:31;18.67;;;13.40;;
38785;SDS011;24535;45.508;12.252;2023-03-05T08:21:57;17.73;;;12.52;;
38785;SDS011;24535;45.508;12.252;2023-03-05T08:24:22;20.35;;;14.18;;
38785;SDS011;24535;45.508;12.252;2023-03-05T08:26:53;18.05;;;12.88;;
38785;SDS011;24535;45.508;12.252;2023-03-05T08:29:20;26.45;;;14.38;;
38785;SDS011;24535;45.508;12.252;2023-03-05T08:31:46;18.40;;;13.82;;
38785;SDS011;24535;45.508;12.252;2023-03-05T08:34:11;18.13;;;13.25;;
38785;SDS011;24535;45.508;12.252;2023-03-05T08:36:37;19.50;;;14.00;;
38785;SDS011;24535;45.508;12.252;2023-03-05T08:39:02;22.75;;;14.60;;
38785;SDS011;24535;45.508;12.252;2023-03-05T08:41:30;23.55;;;15.32;;
38785;SDS011;24535;45.508;12.252;2023-03-05T08:43:56;22.58;;;15.13;;
38785;SDS011;24535;45.508;12.252;2023-03-05T08:46:22;25.70;;;16.05;;
38785;SDS011;24535;45.508;12.252;2023-03-05T08:48:48;22.30;;;15.13;;
38785;SDS011;24535;45.508;12.252;2023-03-05T08:51:19;21.88;;;14.98;;
38785;SDS011;24535;45.508;12.252;2023-03-05T08:53:48;21.35;;;15.38;;
38785;SDS011;24535;45.508;12.252;2023-03-05T08:56:14;24.13;;;15.90;;
38785;SDS011;24535;45.508;12.252;2023-03-05T08:58:40;22.05;;;13.48;;
38785;SDS011;24535;45.508;12.252;2023-03-05T09:01:06;19.17;;;13.68;;
38785;SDS011;24535;45.508;12.252;2023-03-05T09:03:31;17.80;;;11.77;;
38785;SDS011;24535;45.508;12.252;2023-03-05T09:06:04;18.92;;;14.18;;
38785;SDS011;24535;45.508;12.252;2023-03-05T09:08:33;22.08;;;13.88;;
38785;SDS011;24535;45.508;12.252;2023-03-05T09:11:00;19.50;;;12.85;;
38785;SDS011;24535;45.508;12.252;2023-03-05T09:13:27;29.08;;;17.85;;
38785;SDS011;24535;45.508;12.252;2023-03-05T09:15:53;25.27;;;14.55;;
38785;SDS011;24535;45.508;12.252;2023-03-05T09:18:23;19.23;;;12.77;;
38785;SDS011;24535;45.508;12.252;2023-03-05T09:20:48;22.55;;;13.88;;
38785;SDS011;24535;45.508;12.252;2023-03-05T09:23:14;19.00;;;13.13;;
38785;SDS011;24535;45.508;12.252;2023-03-05T09:25:39;23.85;;;15.55;;
38785;SDS011;24535;45.508;12.252;2023-03-05T09:28:05;20.02;;;13.27;;
38785;SDS011;24535;45.508;12.252;2023-03-05T09:30:31;16.33;;;12.30;;
38785;SDS011;24535;45.508;12.252;2023-03-05T09:32:59;16.15;;;11.80;;
38785;SDS011;24535;45.508;12.252;2023-03-05T09:35:25;25.60;;;16.77;;
38785;SDS011;24535;45.508;12.252;2023-03-05T09:37:50;25.58;;;18.00;;
38785;SDS011;24535;45.508;12.252;2023-03-05T09:40:17;22.92;;;15.10;;
38785;SDS011;24535;45.508;12.252;2023-03-05T09:42:56;21.10;;;14.25;;
38785;SDS011;24535;45.508;12.252;2023-03-05T09:45:43;31.63;;;18.48;;
38785;SDS011;24535;45.508;12.252;2023-03-05T09:51:24;24.67;;;18.30;;
38785;SDS011;24535;45.508;12.252;2023-03-05T09:53:57;27.13;;;18.63;;
38785;SDS011;24535;45.508;12.252;2023-03-05T09:56:34;23.55;;;17.27;;
38785;SDS011;24535;45.508;12.252;2023-03-05T09:59:03;25.65;;;18.45;;
38785;SDS011;24535;45.508;12.252;2023-03-05T10:01:39;26.92;;;19.83;;
38785;SDS011;24535;45.508;12.252;2023-03-05T10:09:30;39.20;;;23.25;;
38785;SDS011;24535;45.508;12.252;2023-03-05T10:12:13;27.55;;;19.20;;
38785;SDS011;24535;45.508;12.252;2023-03-05T10:14:45;28.73;;;20.77;;
38785;SDS011;24535;45.508;12.252;2023-03-05T10:22:59;21.45;;;15.35;;
38785;SDS011;24535;45.508;12.252;2023-03-05T10:25:42;21.42;;;13.93;;
38785;SDS011;24535;45.508;12.252;2023-03-05T10:45:54;22.75;;;13.20;;
38785;SDS011;24535;45.508;12.252;2023-03-05T10:50:49;27.42;;;17.95;;
38785;SDS011;24535;45.508;12.252;2023-03-05T10:53:28;26.45;;;16.52;;
38785;SDS011;24535;45.508;12.252;2023-03-05T10:56:03;24.92;;;16.88;;
38785;SDS011;24535;45.508;12.252;2023-03-05T10:58:30;22.67;;;16.67;;
38785;SDS011;24535;45.508;12.252;2023-03-05T11:00:57;26.58;;;18.65;;
38785;SDS011;24535;45.508;12.252;2023-03-05T11:06:13;30.05;;;19.17;;
38785;SDS011;24535;45.508;12.252;2023-03-05T11:08:40;29.38;;;21.55;;
38785;SDS011;24535;45.508;12.252;2023-03-05T11:13:58;28.33;;;18.15;;
38785;SDS011;24535;45.508;12.252;2023-03-05T11:16:29;30.17;;;20.63;;
38785;SDS011;24535;45.508;12.252;2023-03-05T11:21:41;32.58;;;22.70;;
38785;SDS011;24535;45.508;12.252;2023-03-05T11:24:14;36.55;;;26.23;;
38785;SDS011;24535;45.508;12.252;2023-03-05T11:26:49;33.88;;;23.73;;
38785;SDS011;24535;45.508;12.252;2023-03-05T11:29:24;41.40;;;27.70;;
38785;SDS011;24535;45.508;12.252;2023-03-05T11:31:52;45.60;;;29.67;;
38785;SDS011;24535;45.508;12.252;2023-03-05T11:39:15;40.83;;;28.83;;
38785;SDS011;24535;45.508;12.252;2023-03-05T11:41:43;44.40;;;30.20;;
38785;SDS011;24535;45.508;12.252;2023-03-05T11:44:13;47.90;;;32.58;;
38785;SDS011;24535;45.508;12.252;2023-03-05T11:46:46;42.85;;;30.73;;
38785;SDS011;24535;45.508;12.252;2023-03-05T11:49:16;44.70;;;32.72;;
38785;SDS011;24535;45.508;12.252;2023-03-05T11:51:47;49.67;;;34.65;;
38785;SDS011;24535;45.508;12.252;2023-03-05T11:54:15;47.95;;;33.03;;
38785;SDS011;24535;45.508;12.252;2023-03-05T11:56:47;46.08;;;31.52;;
38785;SDS011;24535;45.508;12.252;2023-03-05T11:59:15;43.92;;;30.33;;
38785;SDS011;24535;45.508;12.252;2023-03-05T12:01:55;45.55;;;30.73;;
38785;SDS011;24535;45.508;12.252;2023-03-05T12:04:21;48.00;;;31.70;;
38785;SDS011;24535;45.508;12.252;2023-03-05T12:06:54;42.78;;;32.15;;
38785;SDS011;24535;45.508;12.252;2023-03-05T12:09:38;45.92;;;31.98;;
38785;SDS011;24535;45.508;12.252;2023-03-05T12:12:17;42.47;;;29.42;;
38785;SDS011;24535;45.508;12.252;2023-03-05T12:22:57;36.30;;;25.45;;
38785;SDS011;24535;45.508;12.252;2023-03-05T12:27:59;35.92;;;23.75;;
38785;SDS011;24535;45.508;12.252;2023-03-05T12:33:00;34.65;;;23.33;;
38785;SDS011;24535;45.508;12.252;2023-03-05T12:35:27;35.83;;;23.83;;
38785;SDS011;24535;45.508;12.252;2023-03-05T12:38:00;32.25;;;21.20;;
38785;SDS011;24535;45.508;12.252;2023-03-05T12:40:27;35.25;;;23.50;;
38785;SDS011;24535;45.508;12.252;2023-03-05T12:43:03;31.17;;;22.48;;
38785;SDS011;24535;45.508;12.252;2023-03-05T12:45:34;27.35;;;20.48;;
38785;SDS011;24535;45.508;12.252;2023-03-05T12:52:59;30.90;;;21.67;;
38785;SDS011;24535;45.508;12.252;2023-03-05T13:03:38;34.88;;;23.55;;
38785;SDS011;24535;45.508;12.252;2023-03-05T13:06:22;32.05;;;23.15;;
38785;SDS011;24535;45.508;12.252;2023-03-05T13:11:25;31.50;;;23.92;;
38785;SDS011;24535;45.508;12.252;2023-03-05T13:13:52;36.10;;;24.33;;
38785;SDS011;24535;45.508;12.252;2023-03-05T13:16:21;34.50;;;25.02;;
38785;SDS011;24535;45.508;12.252;2023-03-05T13:21:18;31.17;;;22.55;;
38785;SDS011;24535;45.508;12.252;2023-03-05T13:26:22;40.28;;;25.48;;
38785;SDS011;24535;45.508;12.252;2023-03-05T13:29:16;43.42;;;26.90;;
38785;SDS011;24535;45.508;12.252;2023-03-05T13:31:50;35.13;;;26.38;;
38785;SDS011;24535;45.508;12.252;2023-03-05T13:34:22;32.75;;;24.35;;
38785;SDS011;24535;45.508;12.252;2023-03-05T13:36:59;39.72;;;26.65;;
38785;SDS011;24535;45.508;12.252;2023-03-05T13:39:42;33.20;;;23.85;;
38785;SDS011;24535;45.508;12.252;2023-03-05T13:42:16;39.83;;;27.23;;
38785;SDS011;24535;45.508;12.252;2023-03-05T13:44:51;41.60;;;27.15;;
38785;SDS011;24535;45.508;12.252;2023-03-05T13:47:25;43.97;;;28.92;;
38785;SDS011;24535;45.508;12.252;2023-03-05T13:49:56;37.92;;;26.70;;
38785;SDS011;24535;45.508;12.252;2023-03-05T13:52:33;34.58;;;26.15;;
38785;SDS011;24535;45.508;12.252;2023-03-05T13:55:01;45.78;;;31.02;;
38785;SDS011;24535;45.508;12.252;2023-03-05T14:00:06;45.25;;;32.13;;
38785;SDS011;24535;45.508;12.252;2023-03-05T14:02:49;47.53;;;34.35;;
38785;SDS011;24535;45.508;12.252;2023-03-05T14:05:15;45.70;;;32.92;;
38785;SDS011;24535;45.508;12.252;2023-03-05T14:07:41;53.42;;;36.17;;
38785;SDS011;24535;45.508;12.252;2023-03-05T14:13:00;52.67;;;36.80;;
38785;SDS011;24535;45.508;12.252;2023-03-05T14:16:06;50.40;;;35.53;;
38785;SDS011;24535;45.508;12.252;2023-03-05T14:18:34;56.28;;;39.67;;
38785;SDS011;24535;45.508;12.252;2023-03-05T14:21:07;58.40;;;38.78;;
38785;SDS011;24535;45.508;12.252;2023-03-05T14:23:37;54.03;;;36.92;;
38785;SDS011;24535;45.508;12.252;2023-03-05T14:26:38;60.33;;;40.35;;
38785;SDS011;24535;45.508;12.252;2023-03-05T14:29:12;54.95;;;37.60;;
38785;SDS011;24535;45.508;12.252;2023-03-05T14:31:45;49.55;;;35.05;;
38785;SDS011;24535;45.508;12.252;2023-03-05T14:34:59;53.38;;;38.97;;
38785;SDS011;24535;45.508;12.252;2023-03-05T14:39:44;58.50;;;40.60;;
38785;SDS011;24535;45.508;12.252;2023-03-05T14:42:25;63.22;;;44.65;;
38785;SDS011;24535;45.508;12.252;2023-03-05T14:44:52;70.68;;;46.88;;
38785;SDS011;24535;45.508;12.252;2023-03-05T14:47:19;63.70;;;45.92;;
38785;SDS011;24535;45.508;12.252;2023-03-05T14:49:49;67.25;;;47.05;;
38785;SDS011;24535;45.508;12.252;2023-03-05T14:52:14;70.72;;;47.88;;
38785;SDS011;24535;45.508;12.252;2023-03-05T14:54:42;63.33;;;42.55;;
38785;SDS011;24535;45.508;12.252;2023-03-05T14:57:12;60.38;;;41.88;;
38785;SDS011;24535;45.508;12.252;2023-03-05T14:59:46;60.00;;;41.92;;
38785;SDS011;24535;45.508;12.252;2023-03-05T15:02:30;60.40;;;45.90;;
38785;SDS011;24535;45.508;12.252;2023-03-05T15:04:55;63.05;;;42.67;;
38785;SDS011;24535;45.508;12.252;2023-03-05T15:07:22;65.88;;;46.88;;
38785;SDS011;24535;45.508;12.252;2023-03-05T15:09:52;63.00;;;46.47;;
38785;SDS011;24535;45.508;12.252;2023-03-05T15:12:18;70.53;;;51.00;;
38785;SDS011;24535;45.508;12.252;2023-03-05T15:14:48;68.53;;;50.20;;
38785;SDS011;24535;45.508;12.252;2023-03-05T15:17:22;69.85;;;50.92;;
38785;SDS011;24535;45.508;12.252;2023-03-05T15:19:54;75.35;;;53.55;;
38785;SDS011;24535;45.508;12.252;2023-03-05T15:22:19;72.72;;;52.28;;
38785;SDS011;24535;45.508;12.252;2023-03-05T15:24:45;76.13;;;52.83;;
38785;SDS011;24535;45.508;12.252;2023-03-05T15:27:10;70.50;;;49.83;;
38785;SDS011;24535;45.508;12.252;2023-03-05T15:29:36;67.30;;;48.70;;
38785;SDS011;24535;45.508;12.252;2023-03-05T15:32:02;73.45;;;52.08;;
38785;SDS011;24535;45.508;12.252;2023-03-05T15:34:29;73.07;;;49.17;;
38785;SDS011;24535;45.508;12.252;2023-03-05T15:36:57;67.05;;;49.97;;
38785;SDS011;24535;45.508;12.252;2023-03-05T15:39:23;71.75;;;50.60;;
38785;SDS011;24535;45.508;12.252;2023-03-05T15:41:49;71.10;;;51.40;;
38785;SDS011;24535;45.508;12.252;2023-03-05T15:44:15;67.05;;;47.90;;
38785;SDS011;24535;45.508;12.252;2023-03-05T15:46:41;69.20;;;50.03;;
38785;SDS011;24535;45.508;12.252;2023-03-05T15:49:06;71.53;;;50.00;;
38785;SDS011;24535;45.508;12.252;2023-03-05T15:51:32;70.95;;;48.30;;